Accueil
METAR-TAF:

METAR-TAF

Aéroports :

Farnborough, Angleterre

latitude: 51-17N, longitude: 000-46W, altitude: 65 m

Observation

Le bulletin a été fait il y a 8 heures et 25 minutes, à 19:20 UTC
Vent 3 kt de nord
Température 1°C
Humidité 100%
Pression 980 hPa
Visibilité: 9000 m
Nuages fragmentés à une hauteur de 400 ft
neige faible

METAR: EGLF 101920Z 36003KT 9000 -SN BKN004 01/01 Q0980

Heure: 03:45 (03:45 UTC)

Prévision

Le bulletin a été fait il y a 8 heures et 2 minutes, à 19:43 UTC
Prévision valable du 10 à 19 UTC au 10 à 20 UTC
Vent 6 kt de ouest/nord-ouest
Visibilité 10 km ou plus
Nuages fragmentés à une hauteur de 600 ft
Temporairement
du 10 à 19 UTC au 10 à 20 UTC
Visibilité: 9000 m
Nuages fragmentés à une hauteur de 400 ft
neige faible

TAF: EGLF 101943Z 1019/1020 30006KT 9999 BKN006 TEMPO 1019/1020 9000 -SN BKN004

Observations et prévisions météorologiques de plus de 4000 aéroports (messages METAR et TAF).

Les stations disponibles sont représentées par des disques jaunes et rouges sur la carte.

Passer la souris dessus pour voir le nom de la station.

Cliquer dessus pour voir les observations et prévisions météorologiques.

Pour changer de carte: cliquez sur les boutons verts avec une croix noire pour zoomer, sur le bouton vert avec un tiret pour effectuer un zoom arrière, ou sur les flèches vertes pour les cartes adjacentes.


METAR-TAF: